Time;durP1;ratioP1;P1;durP2;ratioP2;P2;SDS_P1;SDS_P2;PMS_P1;PMS_P2;Temp;Humidity;BMP_temperature;BMP_pressure;BME280_temperature;BME280_humidity;BME280_pressure;Samples;Min_cycle;Max_cycle;Signal;HPM_P1;HPM_P2
2022/03/22 14:38:34;;;;;;;;;26.50;23.25;;;;;18.60;29.14;102372.19;5070731;28;45371;-63
2022/03/22 14:41:03;;;;;;;;;26.25;19.75;;;;;18.71;27.73;102377.13;5052841;28;45353;-60
2022/03/22 14:43:31;;;;;;;;;22.50;22.00;;;;;18.87;28.25;102361.63;5049616;28;45266;-60
2022/03/22 14:45:57;;;;;;;;;25.25;22.00;;;;;19.04;28.23;102349.56;5048558;28;45322;-64
2022/03/22 14:48:24;;;;;;;;;27.50;24.00;;;;;19.17;27.57;102349.09;5055629;28;46771;-61
2022/03/22 14:50:50;;;;;;;;;28.25;24.50;;;;;19.26;28.15;102346.13;5055682;28;45792;-62
2022/03/22 14:58:52;;;;;;;;;28.00;25.75;;;;;20.52;27.87;102348.91;5055864;28;45230;-65
2022/03/22 15:01:19;;;;;;;;;25.25;22.00;;;;;21.25;26.73;102350.06;5055823;28;45674;-61
2022/03/22 15:03:44;;;;;;;;;28.75;22.50;;;;;22.00;29.48;102346.41;5056245;28;45313;-50
2022/03/22 15:06:10;;;;;;;;;27.00;24.25;;;;;22.83;30.17;102335.13;5055452;28;45277;-49
2022/03/22 15:08:39;;;;;;;;;21.75;19.50;;;;;23.70;28.51;102340.94;5055561;28;46291;-51
2022/03/22 15:11:04;;;;;;;;;32.75;23.50;;;;;24.56;27.69;102343.75;5053975;28;45449;-51
2022/03/22 15:13:30;;;;;;;;;27.50;22.50;;;;;25.37;27.47;102332.53;5055823;28;45724;-50
2022/03/22 15:15:55;;;;;;;;;26.50;23.25;;;;;26.13;26.54;102350.63;5055060;28;45350;-49
2022/03/22 15:18:22;;;;;;;;;24.25;21.00;;;;;26.72;26.97;102322.53;5055430;28;45402;-63
2022/03/22 15:20:47;;;;;;;;;21.00;19.25;;;;;27.32;23.20;102340.47;5054680;28;46527;-63
2022/03/22 15:23:14;;;;;;;;;27.50;23.25;;;;;27.93;23.90;102335.94;5055525;28;45437;-59
2022/03/22 15:25:48;;;;;;;;;21.25;21.00;;;;;28.61;23.04;102328.94;5053850;28;45293;-59
2022/03/22 15:28:17;;;;;;;;;26.50;22.50;;;;;28.87;20.99;102321.56;5058547;28;48065;-60
2022/03/22 15:30:44;;;;;;;;;25.75;24.50;;;;;29.63;21.22;102334.06;5055275;28;45442;-61
2022/03/22 15:33:12;;;;;;;;;23.25;21.50;;;;;29.73;20.29;102336.84;5055369;28;45321;-60
2022/03/22 15:35:39;;;;;;;;;27.50;22.25;;;;;30.33;18.77;102320.09;5054791;28;45484;-60
2022/03/22 15:38:04;;;;;;;;;25.50;21.25;;;;;30.48;17.57;102325.97;5070217;28;45763;-61
2022/03/22 15:40:30;;;;;;;;;23.50;21.25;;;;;30.02;18.67;102323.66;5074771;28;45243;-61
2022/03/22 15:42:56;;;;;;;;;21.75;19.25;;;;;30.84;17.94;102325.47;5074973;28;45388;-60
2022/03/22 15:45:22;;;;;;;;;22.25;19.00;;;;;31.51;17.31;102317.72;5072071;28;46439;-65
2022/03/22 15:47:50;;;;;;;;;20.75;15.75;;;;;32.22;17.36;102313.69;5072744;28;46916;-63
2022/03/22 15:50:17;;;;;;;;;29.25;22.75;;;;;33.08;17.17;102317.09;5060804;28;45261;-66
2022/03/22 15:52:43;;;;;;;;;25.50;22.50;;;;;33.89;16.85;102314.41;5061964;28;45260;-62
2022/03/22 15:55:10;;;;;;;;;19.00;17.25;;;;;34.89;15.92;102311.16;5061178;28;45248;-62
2022/03/22 15:57:37;;;;;;;;;25.50;22.25;;;;;35.49;15.51;102313.66;5059563;28;46439;-63
2022/03/22 16:00:12;;;;;;;;;20.25;16.75;;;;;35.58;15.43;102301.81;5059311;28;45524;-64
2022/03/22 16:02:41;;;;;;;;;26.25;23.00;;;;;35.55;15.74;102307.56;5057018;28;45471;-63
2022/03/22 16:05:07;;;;;;;;;16.75;14.50;;;;;35.64;15.70;102305.69;5057562;28;45399;-63
2022/03/22 16:07:33;;;;;;;;;22.25;20.50;;;;;35.72;15.05;102307.59;5058335;28;46468;-63
2022/03/22 16:09:59;;;;;;;;;23.25;20.00;;;;;35.62;14.33;102302.31;5058612;28;45374;-65
2022/03/22 16:12:24;;;;;;;;;28.25;24.00;;;;;35.74;14.87;102308.25;5057887;28;45563;-65
2022/03/22 16:14:50;;;;;;;;;23.25;21.00;;;;;36.15;14.96;102317.22;5057558;28;45475;-67
2022/03/22 16:17:16;;;;;;;;;26.00;25.50;;;;;36.60;14.11;102311.19;5057006;28;45522;-67
2022/03/22 16:19:42;;;;;;;;;25.25;23.00;;;;;36.59;12.97;102314.06;5057457;28;45567;-65
2022/03/22 16:22:07;;;;;;;;;28.50;25.00;;;;;35.71;13.77;102316.72;5058491;28;45428;-64
2022/03/22 16:24:33;;;;;;;;;25.50;22.00;;;;;35.34;14.24;102320.72;5059998;28;45439;-66
2022/03/22 16:26:59;;;;;;;;;33.00;27.50;;;;;34.86;14.96;102324.13;5059467;28;45386;-65
2022/03/22 16:29:25;;;;;;;;;19.50;17.75;;;;;33.90;14.47;102324.19;5042190;28;45368;-66
2022/03/22 16:31:52;;;;;;;;;28.25;23.50;;;;;31.47;15.17;102311.78;5059394;28;45563;-65
2022/03/22 16:37:06;;;;;;;;;27.50;25.00;;;;;27.50;17.53;102320.44;5058475;28;45360;-67
2022/03/22 16:39:33;;;;;;;;;32.25;25.75;;;;;26.38;18.42;102318.69;5060522;28;45773;-65
2022/03/22 16:42:03;;;;;;;;;26.25;21.25;;;;;25.30;18.73;102310.78;5060050;28;45425;-65
2022/03/22 16:44:33;;;;;;;;;27.25;25.50;;;;;24.55;19.51;102331.44;5059346;28;45391;-65
2022/03/22 16:47:00;;;;;;;;;23.50;16.50;;;;;23.81;20.34;102330.53;5058918;28;45379;-69
2022/03/22 16:49:26;;;;;;;;;24.75;21.50;;;;;23.15;20.96;102320.97;5059203;28;45308;-69
2022/03/22 16:51:52;;;;;;;;;33.00;24.00;;;;;22.57;21.62;102334.69;5059363;28;45486;-67
2022/03/22 16:54:17;;;;;;;;;36.00;26.75;;;;;22.10;22.23;102326.53;5059068;28;45440;-67
2022/03/22 16:56:43;;;;;;;;;31.25;24.75;;;;;21.65;22.56;102332.28;5059061;28;45463;-69
2022/03/22 16:59:08;;;;;;;;;25.75;23.50;;;;;21.37;22.66;102327.44;5059020;28;45420;-64
2022/03/22 17:01:33;;;;;;;;;33.00;25.75;;;;;21.18;22.98;102328.28;5058339;28;45355;-68
2022/03/22 17:03:59;;;;;;;;;28.75;26.00;;;;;20.92;23.59;102332.13;5058872;28;45589;-68
2022/03/22 17:06:29;;;;;;;;;33.75;28.50;;;;;20.71;23.43;102335.75;5058936;28;45451;-69
2022/03/22 17:08:56;;;;;;;;;22.50;21.75;;;;;20.46;24.27;102333.34;5059025;28;45396;-68
2022/03/22 17:11:22;;;;;;;;;26.25;24.50;;;;;20.26;24.21;102330.66;5056256;28;45457;-67
2022/03/22 17:13:49;;;;;;;;;31.00;27.50;;;;;20.06;24.56;102334.13;5058863;28;45233;-68
2022/03/22 17:16:14;;;;;;;;;33.00;29.50;;;;;19.93;24.95;102331.13;5058886;28;46250;-68
2022/03/22 17:18:40;;;;;;;;;26.75;25.25;;;;;19.85;25.03;102329.75;5059435;28;45156;-70
2022/03/22 17:21:06;;;;;;;;;33.25;31.50;;;;;19.69;25.87;102333.00;5060267;28;45362;-68
2022/03/22 17:23:32;;;;;;;;;39.75;34.25;;;;;19.53;26.26;102334.50;5060226;28;45509;-65
2022/03/22 17:25:58;;;;;;;;;37.50;28.75;;;;;19.35;26.23;102329.94;5042002;28;48330;-65
2022/03/22 17:28:24;;;;;;;;;33.75;30.50;;;;;19.19;26.09;102336.72;5059864;28;45529;-65
2022/03/22 17:30:49;;;;;;;;;28.00;28.00;;;;;19.05;26.90;102343.38;5060274;28;45446;-65
2022/03/22 17:33:15;;;;;;;;;34.50;30.00;;;;;18.93;26.89;102330.66;5059564;28;45367;-68
2022/03/22 17:35:44;;;;;;;;;38.75;31.50;;;;;18.82;27.16;102340.72;5059717;28;46262;-67
2022/03/22 17:38:09;;;;;;;;;12.00;7.00;;;;;18.71;27.71;102348.16;5059549;28;45135;-67
2022/03/22 17:40:35;;;;;;;;;37.25;31.50;;;;;18.63;27.42;102350.22;5060018;28;45421;-68
2022/03/22 17:43:01;;;;;;;;;27.75;23.00;;;;;18.54;27.91;102353.97;5059654;28;45182;-66
2022/03/22 17:45:27;;;;;;;;;30.50;30.00;;;;;18.45;27.90;102351.69;5059667;28;46025;-68
2022/03/22 17:47:52;;;;;;;;;44.50;31.25;;;;;18.33;27.85;102350.31;5059689;28;45340;-62
2022/03/22 17:50:18;;;;;;;;;46.00;33.75;;;;;18.24;28.40;102351.50;5059516;28;45356;-62
2022/03/22 17:52:50;;;;;;;;;41.25;32.50;;;;;18.18;28.62;102363.97;5059369;28;45526;-63
2022/03/22 17:55:17;;;;;;;;;43.00;34.00;;;;;18.12;28.53;102362.44;5047129;28;46579;-65
2022/03/22 17:57:43;;;;;;;;;44.25;34.25;;;;;18.05;28.74;102363.53;5059049;28;45428;-65
2022/03/22 18:00:14;;;;;;;;;41.00;33.25;;;;;17.97;29.08;102365.56;5059506;28;45319;-66
2022/03/22 18:02:43;;;;;;;;;47.50;36.75;;;;;17.88;29.22;102369.34;5059415;28;45228;-63
2022/03/22 18:05:10;;;;;;;;;46.00;36.25;;;;;17.80;29.64;102357.34;5059058;28;45304;-62
2022/03/22 18:07:36;;;;;;;;;19.25;13.75;;;;;17.71;29.69;102369.03;5059005;28;45242;-63
2022/03/22 18:10:04;;;;;;;;;50.75;40.75;;;;;17.63;30.48;102371.00;5058983;28;45365;-63
2022/03/22 18:12:29;;;;;;;;;50.00;39.75;;;;;17.54;30.56;102366.00;5058420;28;45515;-63
2022/03/22 18:14:54;;;;;;;;;52.75;38.25;;;;;17.49;30.20;102367.94;5059000;28;45216;-62
2022/03/22 18:17:20;;;;;;;;;48.75;36.00;;;;;17.41;30.54;102376.03;5058648;28;45254;-60
2022/03/22 18:19:45;;;;;;;;;37.50;28.75;;;;;17.34;30.49;102371.88;5059184;28;45319;-61
2022/03/22 18:22:12;;;;;;;;;45.50;37.25;;;;;17.30;30.91;102372.88;5057431;28;45261;-61
2022/03/22 18:24:38;;;;;;;;;50.00;40.25;;;;;17.24;31.14;102371.28;5059691;28;46328;-61
2022/03/22 18:27:05;;;;;;;;;52.75;39.00;;;;;17.20;31.20;102374.03;5057291;28;45347;-61
2022/03/22 18:29:31;;;;;;;;;53.75;40.75;;;;;17.15;31.04;102373.31;5059412;28;45354;-61
2022/03/22 18:31:56;;;;;;;;;53.50;40.75;;;;;17.11;31.39;102376.94;5059031;28;45517;-61
2022/03/22 18:34:23;;;;;;;;;58.00;41.25;;;;;17.07;31.53;102380.56;5059010;28;46017;-61
2022/03/22 18:36:48;;;;;;;;;52.50;41.00;;;;;17.01;31.73;102371.06;5059199;28;45252;-63
2022/03/22 18:39:16;;;;;;;;;55.00;43.00;;;;;16.97;31.96;102380.81;5059801;28;45349;-60
2022/03/22 18:41:43;;;;;;;;;52.50;41.25;;;;;16.94;32.05;102380.03;5058546;28;45272;-60
2022/03/22 18:44:09;;;;;;;;;49.75;41.00;;;;;16.88;32.25;102378.44;5059601;28;45384;-60
2022/03/22 18:46:35;;;;;;;;;53.00;39.25;;;;;16.85;32.17;102385.56;5059077;28;45428;-60
2022/03/22 18:49:00;;;;;;;;;58.25;42.50;;;;;16.81;32.20;102384.75;5040255;28;45490;-60
2022/03/22 18:51:26;;;;;;;;;53.50;41.25;;;;;16.76;32.55;102388.41;5057928;28;45458;-61
2022/03/22 18:53:52;;;;;;;;;52.50;40.25;;;;;16.72;32.50;102395.50;5057896;28;46738;-61
2022/03/22 18:56:17;;;;;;;;;54.75;41.25;;;;;16.68;32.83;102391.25;5055416;28;45470;-60
2022/03/22 18:58:43;;;;;;;;;56.50;41.75;;;;;16.63;32.92;102396.59;5058468;28;45386;-59
2022/03/22 19:01:10;;;;;;;;;54.75;42.00;;;;;16.60;32.92;102396.66;5057682;28;45605;-59
2022/03/22 19:03:35;;;;;;;;;56.00;41.25;;;;;16.58;32.91;102397.59;5058126;28;46208;-59
2022/03/22 19:06:04;;;;;;;;;54.25;44.25;;;;;16.53;33.21;102404.72;5058099;28;45287;-59
2022/03/22 19:08:31;;;;;;;;;53.25;42.75;;;;;16.49;33.40;102405.72;5057468;28;45418;-59
2022/03/22 19:10:57;;;;;;;;;54.25;41.50;;;;;16.44;33.51;102400.59;5056201;28;45457;-58
2022/03/22 19:13:24;;;;;;;;;51.75;42.00;;;;;16.41;33.60;102405.91;5057866;28;46368;-61
2022/03/22 19:15:50;;;;;;;;;65.25;44.50;;;;;16.37;33.86;102412.97;5056976;28;45238;-59
2022/03/22 19:18:16;;;;;;;;;63.00;44.50;;;;;16.33;34.18;102411.34;5057870;28;45262;-58
2022/03/22 19:20:41;;;;;;;;;60.25;45.25;;;;;16.29;34.43;102409.69;5054801;28;45406;-64
2022/03/22 19:23:06;;;;;;;;;60.50;45.75;;;;;16.26;34.37;102407.16;5050588;28;45362;-59
2022/03/22 19:25:32;;;;;;;;;57.50;43.75;;;;;16.24;34.53;102410.72;5060931;28;45478;-60
2022/03/22 19:27:59;;;;;;;;;61.00;45.50;;;;;16.20;34.61;102406.44;5060918;28;45387;-63
2022/03/22 19:30:24;;;;;;;;;55.75;43.00;;;;;16.17;34.64;102412.59;5060139;28;46449;-60
2022/03/22 19:32:54;;;;;;;;;53.50;44.00;;;;;16.13;34.76;102418.84;5057803;28;46170;-62
2022/03/22 19:35:25;;;;;;;;;64.00;46.50;;;;;16.08;35.06;102424.19;5060573;28;45992;-64
2022/03/22 19:37:55;;;;;;;;;52.75;39.50;;;;;16.04;35.26;102417.31;5058495;28;45399;-64
2022/03/22 19:40:22;;;;;;;;;55.50;43.50;;;;;16.00;35.53;102420.88;5058622;28;45431;-63
2022/03/22 19:42:48;;;;;;;;;64.25;44.50;;;;;15.93;35.60;102421.91;5041879;28;46648;-62
2022/03/22 19:45:14;;;;;;;;;55.00;44.00;;;;;15.92;35.53;102420.19;5060224;28;45434;-62
2022/03/22 19:47:40;;;;;;;;;58.75;45.75;;;;;15.86;36.05;102415.09;5060530;28;45501;-63
2022/03/22 19:50:06;;;;;;;;;64.00;45.25;;;;;15.83;36.27;102420.44;5058968;28;45415;-62
2022/03/22 19:52:32;;;;;;;;;62.75;46.00;;;;;15.80;36.25;102418.72;5059529;28;46576;-61
2022/03/22 19:54:57;;;;;;;;;7.00;7.00;;;;;15.78;36.04;102424.88;5058657;28;45450;-62
2022/03/22 19:57:23;;;;;;;;;62.00;45.00;;;;;15.74;36.22;102431.97;5060401;28;45950;-62
2022/03/22 19:59:48;;;;;;;;;60.25;46.00;;;;;15.71;36.14;102428.53;5059806;28;45547;-63
2022/03/22 20:02:14;;;;;;;;;61.00;47.25;;;;;15.69;36.54;102427.72;5058592;28;47304;-62
2022/03/22 20:04:39;;;;;;;;;59.50;45.50;;;;;15.65;36.90;102428.69;5059328;28;45468;-66
2022/03/22 20:07:05;;;;;;;;;69.25;48.50;;;;;15.58;36.75;102429.66;5059785;28;45241;-65
2022/03/22 20:09:31;;;;;;;;;64.75;48.25;;;;;15.56;36.74;102436.69;5059177;28;45415;-64
2022/03/22 20:11:56;;;;;;;;;66.00;47.50;;;;;15.54;37.08;102431.50;5034336;28;45365;-62
2022/03/22 20:14:22;;;;;;;;;67.25;47.00;;;;;15.48;37.27;102440.34;5059849;28;45221;-61
2022/03/22 20:16:47;;;;;;;;;65.75;49.25;;;;;15.45;37.19;102435.19;5060977;28;45476;-63
2022/03/22 20:19:13;;;;;;;;;66.75;48.50;;;;;15.43;37.71;102434.34;5061499;28;45360;-62
2022/03/22 20:21:42;;;;;;;;;58.25;48.00;;;;;15.38;37.57;102432.69;5047723;28;46882;-61
2022/03/22 20:24:08;;;;;;;;;67.75;51.50;;;;;15.35;37.99;102438.00;5047851;28;45792;-61
2022/03/22 20:26:35;;;;;;;;;66.50;49.25;;;;;15.31;38.08;102431.97;5060735;28;45441;-61
2022/03/22 20:29:00;;;;;;;;;65.75;47.50;;;;;15.28;37.97;102434.66;5053912;28;45282;-61
2022/03/22 20:31:27;;;;;;;;;64.50;48.00;;;;;15.26;38.14;102441.69;5054606;28;45410;-61
2022/03/22 20:33:52;;;;;;;;;68.50;50.50;;;;;15.24;38.05;102445.22;5061393;28;45812;-60
2022/03/22 20:36:18;;;;;;;;;64.75;46.00;;;;;15.18;38.51;102448.81;5060821;28;45301;-63
2022/03/22 20:38:44;;;;;;;;;64.75;48.75;;;;;15.15;38.36;102443.63;5061114;28;45455;-62
2022/03/22 20:41:09;;;;;;;;;65.25;48.25;;;;;15.12;38.26;102459.41;5060169;28;46097;-62
2022/03/22 20:43:35;;;;;;;;;67.00;49.25;;;;;15.09;38.78;102455.09;5061025;28;45303;-63
2022/03/22 20:46:00;;;;;;;;;68.50;51.25;;;;;15.07;38.42;102459.50;5050069;28;45365;-64
2022/03/22 20:48:28;;;;;;;;;69.50;49.50;;;;;15.05;38.82;102457.81;5050207;28;45346;-65
2022/03/22 20:50:54;;;;;;;;;69.75;50.25;;;;;15.02;38.77;102463.97;5049447;28;45279;-66
2022/03/22 20:53:19;;;;;;;;;58.00;47.50;;;;;14.99;38.64;102465.75;5040272;28;45248;-63
2022/03/22 20:59:03;;;;;;;;;68.75;50.25;;;;;14.96;38.58;102468.44;5060841;28;45304;-63
2022/03/22 21:01:15;;;;;;;;;65.50;49.00;;;;;14.87;38.89;102462.47;5046287;28;45479;-66
2022/03/22 21:03:40;;;;;;;;;68.75;49.50;;;;;14.84;39.10;102465.16;5049078;28;45422;-65
2022/03/22 21:06:06;;;;;;;;;67.25;48.75;;;;;14.82;39.10;102464.31;5030963;28;45771;-63
2022/03/22 21:08:33;;;;;;;;;63.50;47.50;;;;;14.80;39.15;102470.44;5048363;28;45538;-62
2022/03/22 21:10:59;;;;;;;;;67.25;48.75;;;;;14.77;39.55;102462.66;5058167;28;46349;-62
2022/03/22 21:13:26;;;;;;;;;65.00;49.00;;;;;14.75;39.54;102464.44;5060537;28;45272;-64
2022/03/22 21:15:52;;;;;;;;;58.75;47.25;;;;;14.73;39.55;102461.84;5060557;28;45342;-62
2022/03/22 21:18:17;;;;;;;;;69.50;49.00;;;;;14.69;39.60;102470.66;5049617;28;45438;-60
2022/03/22 21:20:42;;;;;;;;;65.00;47.00;;;;;14.67;39.61;102463.72;5047940;28;46188;-63
2022/03/22 21:23:08;;;;;;;;;70.50;50.00;;;;;14.66;40.06;102475.06;5050247;28;45447;-63
2022/03/22 21:25:33;;;;;;;;;71.25;50.50;;;;;14.64;39.81;102469.88;5048889;28;45403;-63
2022/03/22 21:27:59;;;;;;;;;68.00;48.25;;;;;14.60;39.92;102470.78;5053553;28;45631;-59
2022/03/22 21:30:24;;;;;;;;;69.50;50.00;;;;;14.58;40.12;102462.97;5050442;28;45277;-59
2022/03/22 21:32:49;;;;;;;;;65.25;48.50;;;;;14.54;39.79;102470.91;5050193;28;45246;-63
2022/03/22 21:35:15;;;;;;;;;71.75;50.25;;;;;14.50;40.26;102471.84;5050744;28;45395;-67
2022/03/22 21:37:40;;;;;;;;;67.50;49.75;;;;;14.49;40.30;102462.28;5050401;28;45205;-60
2022/03/22 21:40:08;;;;;;;;;68.50;51.25;;;;;14.46;40.14;102467.56;5048422;28;46256;-61
2022/03/22 21:42:35;;;;;;;;;66.00;50.25;;;;;14.45;39.97;102473.69;5060230;28;45940;-62
2022/03/22 21:45:01;;;;;;;;;66.25;50.75;;;;;14.41;40.54;102475.41;5059994;28;45345;-67
2022/03/22 21:47:30;;;;;;;;;69.75;51.75;;;;;14.39;40.25;102468.50;5059622;28;45510;-63
2022/03/22 21:49:56;;;;;;;;;67.75;49.25;;;;;14.36;40.54;102473.78;5059892;28;46088;-60
2022/03/22 21:52:21;;;;;;;;;67.25;51.00;;;;;14.32;40.63;102473.81;5060010;28;45215;-62
2022/03/22 21:54:47;;;;;;;;;68.75;51.25;;;;;14.29;40.65;102468.66;5059821;28;45186;-63
2022/03/22 21:57:12;;;;;;;;;71.75;49.00;;;;;14.27;40.63;102466.94;5059794;28;45633;-60
2022/03/22 21:59:38;;;;;;;;;66.75;48.75;;;;;14.22;40.97;102463.53;5059712;28;45343;-61
2022/03/22 22:02:04;;;;;;;;;67.25;49.50;;;;;14.18;41.11;102467.94;5060079;28;45250;-59
2022/03/22 22:04:29;;;;;;;;;72.00;50.00;;;;;14.14;40.83;102465.38;5059983;28;45404;-59
2022/03/22 22:06:56;;;;;;;;;67.00;49.25;;;;;14.10;41.30;102468.94;5041832;28;45408;-66
2022/03/22 22:09:21;;;;;;;;;62.75;48.75;;;;;14.06;41.29;102462.91;5053976;28;45420;-60
2022/03/22 22:11:47;;;;;;;;;65.75;49.25;;;;;14.03;42.22;102467.31;5051388;28;45401;-65
2022/03/22 22:14:13;;;;;;;;;69.25;51.00;;;;;14.10;42.14;102467.19;5059855;28;45307;-66
2022/03/22 22:16:39;;;;;;;;;68.50;49.00;;;;;14.17;41.96;102471.44;5059470;28;45221;-58
2022/03/22 22:19:04;;;;;;;;;72.25;54.25;;;;;14.16;41.72;102467.09;5042593;28;46004;-61
2022/03/22 22:21:30;;;;;;;;;70.00;50.00;;;;;14.13;41.43;102469.75;5052279;28;45475;-61
2022/03/22 22:23:56;;;;;;;;;69.50;49.75;;;;;14.09;41.74;102481.16;5059659;28;45311;-60
2022/03/22 22:26:24;;;;;;;;;69.50;51.00;;;;;14.04;41.90;102475.13;5059184;28;45157;-60
2022/03/22 22:28:50;;;;;;;;;65.00;50.00;;;;;13.99;42.02;102476.91;5053746;28;47078;-59
2022/03/22 22:31:15;;;;;;;;;68.50;50.75;;;;;13.89;41.90;102472.72;5051603;28;45306;-59
2022/03/22 22:33:59;;;;;;;;;68.00;51.50;;;;;13.89;42.14;102480.56;5059336;28;45269;-59
2022/03/22 22:36:25;;;;;;;;;62.25;49.25;;;;;13.83;42.11;102471.06;5059167;28;45276;-63
2022/03/22 22:38:50;;;;;;;;;72.75;55.50;;;;;13.80;42.18;102475.44;5059256;28;45376;-58
2022/03/22 22:41:16;;;;;;;;;73.75;52.75;;;;;13.76;42.31;102479.84;5058877;28;45430;-58
2022/03/22 22:43:41;;;;;;;;;66.50;50.50;;;;;13.67;42.75;102470.38;5059487;28;45314;-58
2022/03/22 22:46:07;;;;;;;;;77.00;54.00;;;;;13.59;43.38;102464.38;5059112;28;45317;-61
2022/03/22 22:48:32;;;;;;;;;71.25;52.50;;;;;13.55;43.10;102470.53;5059378;28;46300;-67
2022/03/22 22:50:57;;;;;;;;;69.25;51.50;;;;;13.54;43.04;102471.41;5059297;28;45229;-59
2022/03/22 22:53:23;;;;;;;;;71.50;52.00;;;;;13.50;43.07;102485.41;5059314;28;45186;-75
2022/03/22 22:55:48;;;;;;;;;74.50;53.50;;;;;13.46;43.15;102486.31;5046241;28;45485;-59
2022/03/22 22:58:14;;;;;;;;;69.25;50.25;;;;;13.40;43.63;102479.41;5059132;28;45275;-60
2022/03/22 23:03:20;;;;;;;;;68.75;51.00;;;;;13.32;43.66;102483.84;5049829;28;45464;-59
2022/03/22 23:05:45;;;;;;;;;73.00;54.25;;;;;13.29;43.52;102486.50;5061228;28;45419;-59
2022/03/22 23:10:54;;;;;;;;;71.25;51.75;;;;;13.18;44.04;102480.50;5061066;28;45320;-61
2022/03/22 23:13:20;;;;;;;;;72.75;51.25;;;;;13.17;43.92;102480.50;5061623;28;45459;-60
2022/03/22 23:15:45;;;;;;;;;75.50;52.50;;;;;13.13;44.10;102479.69;5043986;28;45420;-61
2022/03/22 23:18:11;;;;;;;;;71.50;52.50;;;;;13.09;44.08;102478.84;5062606;28;46876;-59
2022/03/22 23:20:38;;;;;;;;;73.25;53.00;;;;;13.07;44.18;102483.22;5048329;28;45752;-59
2022/03/22 23:23:06;;;;;;;;;67.50;50.00;;;;;13.03;44.47;102478.06;5062920;28;45648;-61
2022/03/22 23:25:32;;;;;;;;;75.75;57.00;;;;;12.98;44.25;102480.69;5062375;28;45294;-59
2022/03/22 23:27:58;;;;;;;;;70.25;49.25;;;;;12.93;44.53;102482.47;5062725;28;45376;-59
2022/03/22 23:30:23;;;;;;;;;72.00;53.25;;;;;12.91;44.72;102480.75;5048433;28;45282;-59
2022/03/22 23:32:48;;;;;;;;;73.00;53.75;;;;;12.88;44.86;102480.81;5062875;28;45339;-60
2022/03/22 23:35:14;;;;;;;;;74.00;54.75;;;;;12.82;44.90;102481.72;5062299;28;45549;-59
2022/03/22 23:37:40;;;;;;;;;76.75;55.00;;;;;12.75;44.94;102472.22;5062177;28;45561;-60
2022/03/22 23:40:05;;;;;;;;;72.75;55.50;;;;;12.74;45.02;102475.69;5062094;28;45416;-59
2022/03/22 23:42:31;;;;;;;;;78.50;55.25;;;;;12.71;45.14;102483.56;5062624;28;45417;-59
2022/03/22 23:44:56;;;;;;;;;74.75;54.50;;;;;12.67;45.36;102477.50;5061901;28;45473;-60
2022/03/22 23:47:21;;;;;;;;;79.50;57.25;;;;;12.63;45.55;102474.94;5062440;28;45327;-59
2022/03/22 23:49:47;;;;;;;;;69.50;50.75;;;;;12.59;45.60;102476.69;5062124;28;45367;-59
2022/03/22 23:52:12;;;;;;;;;72.25;51.75;;;;;12.56;45.82;102481.94;5062523;28;45299;-60
2022/03/22 23:54:38;;;;;;;;;74.25;52.00;;;;;12.53;45.97;102481.94;5058631;28;45604;-60
2022/03/22 23:57:03;;;;;;;;;76.50;54.00;;;;;12.49;45.99;102483.72;5051947;28;45278;-59
2022/03/22 23:59:29;;;;;;;;;67.00;49.50;;;;;12.43;46.14;102480.31;5061821;28;45221;-59
